Time;durP1;ratioP1;P1;durP2;ratioP2;P2;SDS_P1;SDS_P2;PMS_P1;PMS_P2;Temp;Humidity;BMP_temperature;BMP_pressure;BME280_temperature;BME280_humidity;BME280_pressure;Samples;Min_cycle;Max_cycle;Signal;HPM_P1;HPM_P2
2021/10/31 00:01:35;;;;;;;18.57;11.90;;;;;;;8.42;62.37;100435.27;1754852;81;21703;-69
2021/10/31 00:04:00;;;;;;;18.07;11.07;;;;;;;8.44;62.40;100436.09;1758086;81;20936;-69
2021/10/31 00:06:26;;;;;;;16.37;10.73;;;;;;;8.48;62.40;100435.63;1755036;81;21607;-69
2021/10/31 00:08:52;;;;;;;15.67;10.53;;;;;;;8.49;62.42;100436.05;1746329;81;20881;-69
2021/10/31 00:11:19;;;;;;;20.65;12.33;;;;;;;8.53;62.44;100438.58;1751763;81;20909;-69
2021/10/31 00:13:45;;;;;;;23.38;14.45;;;;;;;8.58;62.42;100444.55;1737042;81;20904;-69
2021/10/31 00:16:11;;;;;;;19.07;11.25;;;;;;;8.62;62.41;100444.08;1747247;81;20949;-69
2021/10/31 00:18:37;;;;;;;18.17;10.33;;;;;;;8.65;62.45;100447.06;1742431;81;20897;-69
2021/10/31 00:21:03;;;;;;;13.27;9.60;;;;;;;8.63;62.45;100444.06;1745444;81;21589;-69
2021/10/31 00:23:31;;;;;;;20.88;10.58;;;;;;;8.71;62.48;100456.02;1733445;81;20974;-69
2021/10/31 00:25:57;;;;;;;15.63;9.90;;;;;;;8.76;62.48;100458.11;1741452;81;20933;-69
2021/10/31 00:28:25;;;;;;;13.37;9.90;;;;;;;8.77;62.49;100464.53;1751508;81;20922;-69
2021/10/31 00:30:52;;;;;;;15.63;9.78;;;;;;;8.79;62.49;100463.23;1748883;81;21742;-69
2021/10/31 00:33:17;;;;;;;;;;;;;;;8.80;62.49;100458.49;1751251;81;20933;-69
2021/10/31 00:35:43;;;;;;;13.78;9.18;;;;;;;8.83;62.53;100459.75;1751923;81;20141;-69
2021/10/31 00:38:09;;;;;;;15.23;10.40;;;;;;;8.83;62.53;100461.89;1756915;81;20976;-69
2021/10/31 00:40:37;;;;;;;16.00;10.48;;;;;;;8.85;62.56;100468.28;1749334;81;20910;-69
2021/10/31 00:43:03;;;;;;;19.27;11.60;;;;;;;8.87;62.57;100463.53;1747743;81;20898;-69
2021/10/31 00:45:29;;;;;;;16.13;10.50;;;;;;;8.91;62.59;100465.64;1755699;81;20905;-69
2021/10/31 00:47:55;;;;;;;22.50;11.37;;;;;;;8.92;62.59;100465.62;1756864;81;21645;-69
2021/10/31 00:50:22;;;;;;;22.87;10.97;;;;;;;8.95;62.60;100469.45;1744664;81;20911;-69
2021/10/31 00:52:54;;;;;;;14.70;9.75;;;;;;;8.97;62.62;100466.86;1744866;81;20948;-69
2021/10/31 00:55:21;;;;;;;15.93;10.82;;;;;;;8.98;62.63;100467.27;1719140;81;20949;-69
2021/10/31 00:57:47;;;;;;;20.00;10.80;;;;;;;8.98;62.65;100470.29;1735530;81;20923;-69
2021/10/31 01:00:14;;;;;;;16.00;10.27;;;;;;;8.98;62.67;100472.44;1747534;81;20878;-69
2021/10/31 01:02:40;;;;;;;;;;;;;;;8.99;62.69;100475.86;1744208;81;21387;-69
2021/10/31 01:05:11;;;;;;;12.65;10.00;;;;;;;9.00;62.70;100472.41;1771289;79;20274;-69
2021/10/31 01:08:03;;;;;;;18.73;10.93;;;;;;;9.00;62.70;100473.70;1774694;79;21360;-69
2021/10/31 01:11:02;;;;;;;16.70;10.58;;;;;;;9.00;62.71;100474.99;1744335;81;20935;-69
2021/10/31 01:13:53;;;;;;;15.15;10.43;;;;;;;8.99;62.70;100475.86;1731145;81;21811;-69
2021/10/31 01:16:58;;;;;;;14.85;11.08;;;;;;;8.95;62.75;100469.89;1736785;81;20942;-69
2021/10/31 01:19:55;;;;;;;20.08;11.88;;;;;;;8.94;62.77;100472.91;1762753;81;20907;-69
2021/10/31 01:22:29;;;;;;;19.52;10.93;;;;;;;8.93;62.79;100479.37;1762524;81;20856;-69
2021/10/31 01:25:21;;;;;;;17.20;11.20;;;;;;;8.92;62.81;100473.36;1751021;81;20892;-69
2021/10/31 01:28:01;;;;;;;18.52;10.90;;;;;;;8.92;62.85;100477.66;1776828;80;20893;-69
2021/10/31 01:31:09;;;;;;;23.87;11.25;;;;;;;8.91;62.86;100478.09;1762526;80;20928;-69
2021/10/31 01:34:23;;;;;;;15.90;11.00;;;;;;;8.91;62.87;100479.38;1742272;81;20946;-69
2021/10/31 01:37:38;;;;;;;17.73;11.53;;;;;;;8.91;62.94;100474.23;1758242;80;20902;-69
2021/10/31 01:40:28;;;;;;;17.92;12.03;;;;;;;8.93;62.93;100478.08;1758061;81;20931;-69
2021/10/31 01:43:08;;;;;;;21.80;12.00;;;;;;;8.95;62.93;100478.91;1754542;81;20937;-69
2021/10/31 01:45:59;;;;;;;18.62;10.32;;;;;;;8.95;62.98;100480.20;1766878;81;20940;-69
2021/10/31 01:48:48;;;;;;;16.07;10.88;;;;;;;8.97;62.99;100474.59;1754815;81;20929;-69
2021/10/31 01:51:25;;;;;;;15.63;11.12;;;;;;;8.97;63.03;100478.46;1767305;81;20933;-69
2021/10/31 01:53:57;;;;;;;15.20;10.98;;;;;;;8.98;63.04;100480.17;1751626;81;20861;-69
2021/10/31 01:56:28;;;;;;;26.05;12.00;;;;;;;8.98;63.04;100478.02;1767625;81;20901;-69
2021/10/31 01:59:04;;;;;;;23.00;12.80;;;;;;;8.98;63.06;100483.19;1765758;81;20940;-69
2021/10/31 02:01:35;;;;;;;18.02;11.48;;;;;;;8.97;63.06;100482.33;1762260;81;20924;-69
2021/10/31 02:04:06;;;;;;;18.82;12.75;;;;;;;8.98;63.10;100481.89;1765795;81;20935;-69
2021/10/31 02:06:40;;;;;;;20.27;12.55;;;;;;;8.96;63.12;100482.77;1766012;79;20907;-69
2021/10/31 02:09:08;;;;;;;17.87;11.68;;;;;;;8.97;63.16;100482.33;1767867;81;21410;-69
2021/10/31 02:11:36;;;;;;;18.55;12.47;;;;;;;8.95;63.15;100473.76;1740446;81;20859;-69
2021/10/31 02:14:02;;;;;;;18.57;12.73;;;;;;;8.95;63.17;100478.91;1756321;81;20903;-69
2021/10/31 02:16:29;;;;;;;19.23;13.15;;;;;;;8.96;63.21;100484.05;1732843;82;20921;-69
2021/10/31 02:19:04;;;;;;;17.92;12.80;;;;;;;8.96;63.23;100481.91;1755710;81;20921;-69
2021/10/31 02:21:28;;;;;;;18.05;12.47;;;;;;;8.96;63.24;100481.91;1746808;81;21406;-69
2021/10/31 02:23:57;;;;;;;17.30;12.43;;;;;;;8.95;63.24;100477.19;1752232;81;21602;-69
2021/10/31 02:26:22;;;;;;;16.52;12.45;;;;;;;8.94;63.25;100481.93;1759773;81;20936;-69
2021/10/31 02:28:58;;;;;;;20.25;13.70;;;;;;;8.93;63.27;100471.20;1755355;81;21378;-69
2021/10/31 02:31:26;;;;;;;15.10;12.25;;;;;;;8.93;63.32;100481.52;1761581;81;21398;-69
2021/10/31 02:33:58;;;;;;;20.90;13.08;;;;;;;8.94;63.33;100485.80;1756909;81;21414;-69
2021/10/31 02:36:24;;;;;;;20.63;13.20;;;;;;;8.95;63.36;100487.94;1755432;81;21694;-69
2021/10/31 02:38:50;;;;;;;18.27;12.95;;;;;;;8.96;63.38;100484.48;1760631;81;20875;-69
2021/10/31 02:41:18;;;;;;;18.15;12.43;;;;;;;8.99;63.39;100488.76;1759495;81;21415;-69
2021/10/31 02:43:46;;;;;;;15.80;12.50;;;;;;;9.00;63.38;100482.73;1760642;81;20910;-69
2021/10/31 02:46:12;;;;;;;18.57;12.45;;;;;;;9.01;63.40;100488.31;1755496;81;21417;-69
2021/10/31 02:48:39;;;;;;;17.17;13.13;;;;;;;9.01;63.42;100489.59;1749072;80;21456;-69
2021/10/31 02:51:12;;;;;;;;;;;;;;;8.99;63.41;100497.35;1764930;80;20990;-69
2021/10/31 02:53:46;;;;;;;19.25;11.90;;;;;;;8.98;63.51;100492.21;1739248;82;20102;-69
2021/10/31 02:56:42;;;;;;;20.15;12.03;;;;;;;8.96;63.45;100498.67;1729923;81;21401;-69
2021/10/31 02:59:20;;;;;;;14.43;12.23;;;;;;;8.96;63.47;100501.25;1751317;81;21398;-69
2021/10/31 03:01:48;;;;;;;17.40;12.88;;;;;;;8.94;63.53;100503.84;1756812;81;21370;-69
2021/10/31 03:04:20;;;;;;;20.50;13.78;;;;;;;8.96;63.56;100510.28;1736408;81;21366;-69
2021/10/31 03:06:46;;;;;;;17.10;13.03;;;;;;;8.95;63.55;100500.83;1752055;81;22065;-69
2021/10/31 03:09:17;;;;;;;21.85;12.90;;;;;;;8.94;63.57;100506.86;1748883;81;21361;-69
2021/10/31 03:11:43;;;;;;;22.62;13.40;;;;;;;8.92;63.59;100512.03;1751583;81;20972;-69
2021/10/31 03:14:09;;;;;;;18.70;13.70;;;;;;;8.92;63.61;100516.34;1748730;81;21434;-69
2021/10/31 03:16:35;;;;;;;20.70;13.43;;;;;;;8.90;63.60;100520.22;1720880;82;21458;-69
2021/10/31 03:19:02;;;;;;;20.12;13.93;;;;;;;8.88;63.63;100521.11;1729009;81;21363;-69
2021/10/31 03:21:29;;;;;;;20.12;14.40;;;;;;;8.85;63.64;100518.13;1751341;81;21419;-69
2021/10/31 03:23:55;;;;;;;17.15;13.78;;;;;;;8.84;63.68;100520.28;1757677;81;26278;-69
2021/10/31 03:26:21;;;;;;;19.13;13.83;;;;;;;8.82;63.68;100521.20;1753674;81;21650;-69
2021/10/31 03:28:47;;;;;;;21.90;14.13;;;;;;;8.79;63.71;100519.52;1756006;81;21406;-69
2021/10/31 03:33:36;;;;;;;19.27;13.45;;;;;;;8.79;63.73;100523.38;1835938;76;22704;-68
2021/10/31 03:36:03;;;;;;;18.65;13.90;;;;;;;8.73;63.77;100523.44;1819165;78;21465;-68
2021/10/31 03:38:29;;;;;;;21.23;14.58;;;;;;;8.70;63.79;100516.17;1802915;78;21322;-68
2021/10/31 03:40:55;;;;;;;18.20;13.67;;;;;;;8.69;63.81;100519.62;1788717;80;21377;-68
2021/10/31 03:43:21;;;;;;;21.23;14.53;;;;;;;8.67;63.84;100522.64;1754169;81;21728;-68
2021/10/31 03:45:49;;;;;;;21.00;15.10;;;;;;;8.65;63.86;100520.52;1754428;81;21618;-68
2021/10/31 03:48:16;;;;;;;24.72;15.32;;;;;;;8.60;63.83;100529.14;1753562;81;21418;-68
2021/10/31 03:50:42;;;;;;;19.35;13.75;;;;;;;8.58;63.88;100532.17;1754064;81;21381;-68
2021/10/31 03:53:08;;;;;;;18.73;13.85;;;;;;;8.56;63.91;100531.77;1753657;81;20913;-68
2021/10/31 03:55:34;;;;;;;17.25;14.47;;;;;;;8.52;63.90;100528.80;1754169;81;21399;-68
2021/10/31 03:58:02;;;;;;;21.37;14.83;;;;;;;8.49;63.93;100528.39;1753848;81;21414;-68
2021/10/31 04:00:28;;;;;;;24.13;14.53;;;;;;;8.48;63.96;100523.25;1753462;81;20973;-68
2021/10/31 04:02:54;;;;;;;21.93;15.03;;;;;;;8.46;64.00;100527.12;1752860;81;21644;-68
2021/10/31 04:05:20;;;;;;;22.77;14.18;;;;;;;8.45;64.00;100533.58;1753855;81;21347;-68
2021/10/31 04:07:50;;;;;;;19.92;14.85;;;;;;;8.44;64.05;100538.31;1744826;81;21470;-68
2021/10/31 04:10:16;;;;;;;20.40;15.08;;;;;;;8.40;64.08;100541.34;1749763;81;20973;-68
2021/10/31 04:12:44;;;;;;;20.57;14.73;;;;;;;8.40;64.08;100542.63;1723058;82;20964;-68
2021/10/31 04:15:10;;;;;;;22.87;14.60;;;;;;;8.38;64.14;100541.79;1660510;83;273244;-68
2021/10/31 04:17:36;;;;;;;21.07;15.35;;;;;;;8.37;64.13;100550.39;1660929;84;21842;-68
2021/10/31 04:20:03;;;;;;;19.17;13.90;;;;;;;8.37;64.19;100540.52;1667490;85;21396;-68
2021/10/31 04:22:29;;;;;;;25.72;14.78;;;;;;;8.37;64.21;100541.80;1675507;84;25161;-68
2021/10/31 04:24:55;;;;;;;19.12;14.07;;;;;;;8.38;64.24;100551.24;1668482;85;21450;-68
2021/10/31 04:27:22;;;;;;;22.87;14.57;;;;;;;8.36;64.26;100549.97;1665616;85;21406;-68
2021/10/31 04:29:51;;;;;;;17.35;14.40;;;;;;;8.36;64.24;100553.83;1668104;84;21633;-68
2021/10/31 04:32:17;;;;;;;20.75;15.15;;;;;;;8.37;64.30;100557.27;1637104;86;21466;-68
2021/10/31 04:34:43;;;;;;;21.80;14.25;;;;;;;8.37;64.32;100559.84;1667772;84;21384;-68
2021/10/31 04:37:14;;;;;;;25.80;14.53;;;;;;;8.37;64.33;100556.83;1633656;87;20910;-68
2021/10/31 04:39:44;;;;;;;21.37;14.13;;;;;;;8.37;64.35;100552.96;1658685;85;21422;-68
2021/10/31 04:42:11;;;;;;;17.82;14.73;;;;;;;8.37;64.40;100553.40;1663637;85;21474;-68
2021/10/31 04:44:39;;;;;;;24.45;14.68;;;;;;;8.38;64.44;100552.53;1665852;85;20936;-68
2021/10/31 04:47:06;;;;;;;21.00;16.52;;;;;;;8.41;64.46;100558.52;1665891;85;20972;-68
2021/10/31 04:49:33;;;;;;;21.55;15.68;;;;;;;8.44;64.49;100561.50;1662791;85;20883;-68
2021/10/31 04:51:59;;;;;;;21.35;14.95;;;;;;;8.47;64.54;100558.47;1655550;85;20913;-68
2021/10/31 04:54:26;;;;;;;20.10;15.50;;;;;;;8.49;64.52;100550.29;1656823;85;20906;-68
2021/10/31 04:56:54;;;;;;;21.80;15.75;;;;;;;8.50;64.56;100555.86;1660681;85;20893;-68
2021/10/31 04:59:20;;;;;;;21.40;15.58;;;;;;;8.51;64.55;100556.72;1671663;85;20975;-68
2021/10/31 05:01:46;;;;;;;20.50;15.30;;;;;;;8.50;64.57;100564.03;1678330;85;20915;-68
2021/10/31 05:04:12;;;;;;;23.10;16.67;;;;;;;8.47;64.59;100560.19;1644916;85;20900;-68
2021/10/31 05:06:38;;;;;;;22.02;15.83;;;;;;;8.45;64.64;100564.06;1682606;84;20891;-68
2021/10/31 05:09:05;;;;;;;22.62;16.42;;;;;;;8.42;64.61;100565.38;1661636;84;20906;-68
2021/10/31 05:11:31;;;;;;;21.93;15.43;;;;;;;8.39;64.63;100564.55;1660350;85;20938;-68
2021/10/31 05:13:57;;;;;;;20.17;14.63;;;;;;;8.35;64.66;100563.72;1668320;85;20912;-68
2021/10/31 05:16:23;;;;;;;20.00;15.50;;;;;;;8.30;64.72;100568.90;1663024;85;20867;-68
2021/10/31 05:18:49;;;;;;;21.73;15.07;;;;;;;8.27;64.70;100579.66;1663807;85;22087;-68
2021/10/31 05:21:15;;;;;;;21.93;16.30;;;;;;;8.22;64.74;100574.54;1662558;84;21217;-68
2021/10/31 05:23:41;;;;;;;23.97;15.10;;;;;;;8.18;64.78;100572.84;1658554;84;20916;-68
2021/10/31 05:26:07;;;;;;;23.40;15.63;;;;;;;8.14;64.77;100577.59;1660287;84;20932;-68
2021/10/31 05:28:33;;;;;;;21.63;15.83;;;;;;;8.12;64.87;100576.75;1650352;86;20898;-68
2021/10/31 05:30:59;;;;;;;23.65;16.00;;;;;;;8.11;64.91;100575.05;1682385;84;20938;-68
2021/10/31 05:33:26;;;;;;;22.47;15.93;;;;;;;8.10;64.95;100574.62;1631396;87;20976;-68
2021/10/31 05:35:52;;;;;;;20.72;15.23;;;;;;;8.10;64.95;100572.48;1643236;85;20938;-68
2021/10/31 05:38:25;;;;;;;22.05;16.52;;;;;;;8.09;64.99;100570.77;1644590;86;20926;-68
2021/10/31 05:40:51;;;;;;;24.43;16.50;;;;;;;8.08;65.01;100572.92;1663444;85;20888;-68
2021/10/31 05:43:18;;;;;;;22.87;16.17;;;;;;;8.06;65.04;100572.93;1636181;85;20922;-68
2021/10/31 05:45:45;;;;;;;20.77;16.35;;;;;;;8.05;65.08;100575.08;1669886;85;20936;-71
2021/10/31 05:48:12;;;;;;;21.93;15.95;;;;;;;8.05;65.13;100574.22;1637107;85;20917;-68
2021/10/31 05:50:40;;;;;;;23.73;15.93;;;;;;;8.07;65.14;100576.36;1611973;88;20990;-68
2021/10/31 05:53:06;;;;;;;26.80;16.40;;;;;;;8.07;65.17;100582.80;1647121;86;20946;-68
2021/10/31 05:55:33;;;;;;;22.37;15.65;;;;;;;8.09;65.22;100582.36;1662290;84;20895;-68
2021/10/31 05:57:59;;;;;;;26.25;16.45;;;;;;;8.10;65.22;100577.62;1658351;85;20918;-68
2021/10/31 06:00:25;;;;;;;22.82;16.48;;;;;;;8.12;65.29;100584.48;1654967;85;20975;-68
2021/10/31 06:05:28;;;;;;;21.20;16.00;;;;;;;8.18;65.27;100587.45;1862507;76;21848;-68
2021/10/31 06:07:55;;;;;;;23.73;15.13;;;;;;;8.16;65.34;100590.47;1825490;77;20843;-68
2021/10/31 06:10:20;;;;;;;21.60;16.43;;;;;;;8.17;65.34;100591.75;1824389;77;20952;-68
2021/10/31 06:12:48;;;;;;;23.17;15.77;;;;;;;8.19;65.37;100591.30;1824655;77;20901;-68
2021/10/31 06:15:21;;;;;;;23.40;16.45;;;;;;;8.22;65.44;100600.30;1814649;77;20842;-68
2021/10/31 06:17:47;;;;;;;19.98;16.25;;;;;;;8.26;65.48;100595.98;1827117;77;20934;-68
2021/10/31 06:20:15;;;;;;;25.30;16.55;;;;;;;8.30;65.49;100604.11;1829761;77;20875;-68
2021/10/31 06:22:42;;;;;;;24.23;16.82;;;;;;;8.34;65.51;100603.22;1769960;77;400684;-68
2021/10/31 06:25:10;;;;;;;24.18;16.07;;;;;;;8.39;65.55;100610.48;1761796;81;20974;-68
2021/10/31 06:27:42;;;;;;;22.20;16.35;;;;;;;8.43;65.57;100609.60;1758925;80;20913;-68
2021/10/31 06:30:09;;;;;;;21.85;16.07;;;;;;;8.47;65.59;100615.59;1760084;81;20953;-68
2021/10/31 06:32:35;;;;;;;25.97;15.90;;;;;;;8.51;65.63;100614.70;1752145;80;20909;-69
2021/10/31 06:35:01;;;;;;;19.60;14.60;;;;;;;8.55;65.64;100615.95;1728252;81;20921;-69
2021/10/31 06:37:27;;;;;;;20.12;15.18;;;;;;;8.58;65.65;100617.22;1728328;81;20921;-69
2021/10/31 06:39:56;;;;;;;22.90;15.20;;;;;;;8.64;65.66;100627.91;1694375;83;20971;-69
2021/10/31 06:42:24;;;;;;;20.17;15.25;;;;;;;8.67;65.69;100627.04;1697583;83;20959;-69
2021/10/31 06:44:49;;;;;;;20.02;14.55;;;;;;;8.72;65.72;100625.28;1695023;83;20975;-69
2021/10/31 06:47:17;;;;;;;22.20;15.50;;;;;;;8.75;65.76;100629.98;1696696;82;21456;-69
2021/10/31 06:49:44;;;;;;;19.02;15.05;;;;;;;8.80;65.79;100625.64;1703320;84;20910;-69
2021/10/31 06:52:10;;;;;;;19.30;15.35;;;;;;;8.85;65.84;100629.00;1701525;84;20966;-71
2021/10/31 06:54:36;;;;;;;24.63;15.40;;;;;;;8.94;65.87;100637.09;1703640;84;20895;-71
2021/10/31 06:57:03;;;;;;;22.53;15.40;;;;;;;9.02;65.90;100637.88;1703682;84;21170;-71
2021/10/31 06:59:32;;;;;;;21.42;14.87;;;;;;;9.10;65.93;100639.09;1702801;84;21418;-73
2021/10/31 07:01:59;;;;;;;19.05;14.70;;;;;;;9.16;65.94;100640.33;1702364;84;20887;-73
2021/10/31 07:04:27;;;;;;;19.52;14.70;;;;;;;9.21;65.97;100636.83;1695685;83;20932;-72
2021/10/31 07:06:53;;;;;;;19.05;14.13;;;;;;;9.29;66.00;100645.35;1690938;84;20926;-72
2021/10/31 07:09:20;;;;;;;23.02;15.53;;;;;;;9.37;66.00;100650.41;1689925;84;26973;-73
2021/10/31 07:11:48;;;;;;;20.25;15.35;;;;;;;9.47;66.02;100651.16;1686767;84;20914;-73
2021/10/31 07:14:14;;;;;;;17.80;14.28;;;;;;;9.57;66.06;100648.90;1683542;84;20890;-73
2021/10/31 07:16:40;;;;;;;18.83;14.43;;;;;;;9.65;66.07;100653.54;1687384;84;20974;-73
2021/10/31 07:19:06;;;;;;;16.63;13.70;;;;;;;9.73;66.05;100647.00;1683164;84;20910;-73
2021/10/31 07:21:32;;;;;;;21.20;14.33;;;;;;;9.81;66.08;100649.91;1690899;84;20922;-72
2021/10/31 07:23:58;;;;;;;23.77;13.80;;;;;;;9.99;65.93;100651.38;1705777;83;20968;-73
2021/10/31 07:26:38;;;;;;;19.32;14.40;;;;;;;9.99;65.93;100651.38;1703534;84;21595;-69
2021/10/31 07:29:08;;;;;;;17.67;14.00;;;;;;;10.09;66.08;100657.28;1674751;85;20928;-69
2021/10/31 07:31:38;;;;;;;20.37;14.60;;;;;;;10.19;66.11;100656.28;1682689;84;20946;-69
2021/10/31 07:34:08;;;;;;;19.15;14.18;;;;;;;10.30;66.13;100668.66;1675907;84;20987;-69
2021/10/31 07:36:33;;;;;;;24.02;14.23;;;;;;;10.37;66.11;100666.83;1703182;83;20952;-69
2021/10/31 07:38:59;;;;;;;20.10;13.70;;;;;;;10.46;66.11;100649.43;1701299;83;20916;-69
2021/10/31 07:41:25;;;;;;;18.80;13.20;;;;;;;10.44;66.16;100646.02;1708002;83;20959;-69
2021/10/31 07:43:53;;;;;;;17.47;13.10;;;;;;;10.62;66.11;100668.16;1700635;83;21665;-69
2021/10/31 07:46:20;;;;;;;15.83;12.55;;;;;;;10.69;66.12;100669.77;1701172;83;20967;-69
2021/10/31 07:48:46;;;;;;;19.40;13.40;;;;;;;10.78;66.12;100668.33;1685997;84;20963;-73
2021/10/31 07:51:12;;;;;;;19.70;13.37;;;;;;;10.89;66.17;100669.45;1682017;84;20890;-69
2021/10/31 07:53:41;;;;;;;16.40;13.03;;;;;;;11.02;66.18;100663.17;1690231;83;20992;-69
2021/10/31 07:56:07;;;;;;;20.60;13.55;;;;;;;11.12;66.15;100664.72;1687054;84;20962;-69
2021/10/31 07:58:33;;;;;;;;;;;;;;;11.21;66.12;100666.30;1689582;84;20965;-69
2021/10/31 08:00:59;;;;;;;18.23;13.38;;;;;;;11.30;65.93;100667.86;1690170;84;20120;-70
2021/10/31 08:03:25;;;;;;;16.13;13.40;;;;;;;11.39;66.10;100669.84;1688720;84;20969;-69
2021/10/31 08:05:51;;;;;;;17.27;13.62;;;;;;;11.48;66.11;100673.97;1704906;83;20991;-69
2021/10/31 08:08:22;;;;;;;18.62;13.45;;;;;;;11.60;66.15;100674.59;1709417;83;20939;-69
2021/10/31 08:10:49;;;;;;;17.17;12.47;;;;;;;11.72;66.14;100679.12;1713089;83;20931;-69
2021/10/31 08:13:25;;;;;;;14.58;13.00;;;;;;;11.83;66.14;100673.33;1713380;83;20927;-69
2021/10/31 08:15:54;;;;;;;19.62;13.90;;;;;;;11.95;66.09;100679.55;1666863;83;20926;-68
2021/10/31 08:18:21;;;;;;;18.07;13.10;;;;;;;12.04;66.07;100678.48;1684911;83;20988;-70
2021/10/31 08:20:47;;;;;;;17.57;13.03;;;;;;;12.14;66.03;100677.41;1682501;84;21594;-70
2021/10/31 08:23:16;;;;;;;17.07;13.00;;;;;;;12.23;66.03;100681.09;1672213;84;221782;-70
2021/10/31 08:25:45;;;;;;;17.00;12.63;;;;;;;12.33;66.00;100680.45;1678739;83;20926;-70
2021/10/31 08:28:15;;;;;;;16.00;12.47;;;;;;;12.39;65.96;100682.47;1682303;84;20923;-70
2021/10/31 08:30:45;;;;;;;17.40;12.82;;;;;;;12.49;65.96;100676.60;1682761;84;21001;-70
2021/10/31 08:33:23;;;;;;;14.47;11.95;;;;;;;12.57;65.93;100670.80;1672337;84;20948;-70
2021/10/31 08:35:46;;;;;;;18.97;13.13;;;;;;;12.66;65.87;100674.92;1710586;82;596904;-70
2021/10/31 08:38:13;;;;;;;17.62;13.45;;;;;;;12.73;65.80;100668.70;1750660;80;20937;-70
2021/10/31 08:40:41;;;;;;;18.90;14.20;;;;;;;12.74;65.80;100647.91;1746925;80;21411;-70
2021/10/31 08:43:09;;;;;;;15.30;13.00;;;;;;;12.74;65.80;100647.91;1709640;83;21323;-70
2021/10/31 08:45:36;;;;;;;16.10;13.08;;;;;;;12.90;65.76;100672.59;1725889;82;20957;-70
2021/10/31 08:48:02;;;;;;;17.62;13.93;;;;;;;12.97;65.68;100669.84;1705514;83;20933;-70
2021/10/31 08:50:29;;;;;;;14.80;12.67;;;;;;;13.03;65.65;100670.96;1749491;80;20914;-70
2021/10/31 08:52:55;;;;;;;18.97;14.40;;;;;;;13.08;65.64;100679.48;1745066;80;21109;-70
2021/10/31 08:55:21;;;;;;;17.48;13.15;;;;;;;13.14;65.61;100672.39;1737649;82;21635;-70
2021/10/31 08:57:47;;;;;;;17.37;13.87;;;;;;;13.22;65.60;100667.89;1740798;82;20908;-70
2021/10/31 09:00:13;;;;;;;19.03;13.13;;;;;;;13.30;65.56;100660.34;1740694;81;21952;-70
2021/10/31 09:02:42;;;;;;;18.42;12.37;;;;;;;13.38;65.45;100654.50;1729805;81;20894;-70
2021/10/31 09:05:10;;;;;;;16.67;13.45;;;;;;;13.44;65.45;100662.14;1709690;81;20912;-70
2021/10/31 09:07:35;;;;;;;;;;;;;;;13.52;65.40;100658.85;1738220;82;20940;-70
2021/10/31 09:10:03;;;;;;;16.40;13.00;;;;;;;13.59;64.84;100663.84;1726510;82;20165;-70
2021/10/31 09:12:29;;;;;;;14.23;12.55;;;;;;;13.63;65.22;100658.11;1756196;81;21622;-70
2021/10/31 09:14:56;;;;;;;16.10;13.20;;;;;;;13.67;65.18;100657.58;1757498;81;20853;-70
2021/10/31 09:17:23;;;;;;;16.20;13.20;;;;;;;13.70;65.19;100661.39;1756638;81;20934;-70
2021/10/31 09:19:49;;;;;;;15.17;12.70;;;;;;;13.74;65.16;100656.52;1744105;81;20948;-70
2021/10/31 09:22:16;;;;;;;15.93;12.83;;;;;;;13.79;65.13;100653.34;1754629;81;20898;-70
2021/10/31 09:24:42;;;;;;;14.87;11.93;;;;;;;13.83;65.10;100649.31;1749014;81;26356;-70
2021/10/31 09:27:08;;;;;;;21.07;13.97;;;;;;;13.88;65.08;100647.43;1757731;80;20870;-70
2021/10/31 09:29:35;;;;;;;17.40;13.33;;;;;;;13.96;65.04;100645.05;1749737;81;20933;-70
2021/10/31 09:32:03;;;;;;;16.97;13.75;;;;;;;14.03;64.86;100643.98;1738590;82;20934;-70
2021/10/31 09:34:29;;;;;;;18.10;13.53;;;;;;;14.10;64.89;100641.13;1751589;81;24567;-70
2021/10/31 09:36:57;;;;;;;13.68;12.25;;;;;;;14.18;64.79;100643.48;1746128;81;21320;-70
2021/10/31 09:39:25;;;;;;;14.87;12.28;;;;;;;14.22;64.72;100637.30;1742177;81;20952;-70
2021/10/31 09:41:51;;;;;;;13.32;11.63;;;;;;;14.25;64.67;100627.66;1743121;81;21442;-70
2021/10/31 09:44:31;;;;;;;15.23;11.95;;;;;;;14.31;64.72;100634.41;1751656;81;20956;-70
2021/10/31 09:46:51;;;;;;;17.50;13.15;;;;;;;14.37;64.63;100638.13;1744741;81;20933;-68
2021/10/31 09:49:17;;;;;;;14.78;12.82;;;;;;;14.45;64.61;100640.08;1751046;81;20929;-68
2021/10/31 09:51:48;;;;;;;15.98;12.33;;;;;;;14.54;64.53;100635.03;1751513;81;20885;-68
2021/10/31 09:54:14;;;;;;;15.60;11.80;;;;;;;14.61;64.44;100637.81;1742386;81;20957;-69
2021/10/31 09:56:41;;;;;;;14.25;12.35;;;;;;;14.68;64.40;100627.60;1750613;81;20941;-68
2021/10/31 09:59:14;;;;;;;16.87;13.05;;;;;;;14.76;64.33;100627.35;1745287;81;21646;-69
2021/10/31 10:01:58;;;;;;;14.68;11.65;;;;;;;14.82;64.28;100628.45;1745882;81;20917;-69
2021/10/31 10:04:34;;;;;;;13.72;12.18;;;;;;;14.89;64.19;100621.69;1740812;81;20917;-69
2021/10/31 10:07:08;;;;;;;16.85;12.20;;;;;;;14.98;64.12;100615.77;1756345;81;20909;-68
2021/10/31 10:09:36;;;;;;;14.58;11.85;;;;;;;15.05;64.04;100618.56;1758059;81;20911;-69
2021/10/31 10:12:14;;;;;;;14.05;12.50;;;;;;;15.11;64.01;100623.08;1757137;81;20905;-69
2021/10/31 10:14:40;;;;;;;16.80;12.53;;;;;;;15.18;63.74;100618.06;1750940;81;21416;-69
2021/10/31 10:17:11;;;;;;;20.62;12.65;;;;;;;15.27;63.86;100621.25;1758197;81;20948;-69
2021/10/31 10:19:52;;;;;;;13.03;10.85;;;;;;;15.34;63.86;100618.38;1758187;81;20913;-68
2021/10/31 10:22:22;;;;;;;15.20;11.40;;;;;;;15.38;63.65;100619.13;1753254;81;20944;-69
2021/10/31 10:24:53;;;;;;;16.17;12.05;;;;;;;15.41;63.69;100617.70;1749432;81;20897;-68
2021/10/31 10:27:23;;;;;;;12.98;11.38;;;;;;;15.47;63.67;100614.88;1745571;80;20956;-68
2021/10/31 10:29:50;;;;;;;14.38;12.63;;;;;;;15.52;63.62;100615.56;1755078;81;20926;-68
2021/10/31 10:32:19;;;;;;;13.60;12.10;;;;;;;15.55;63.54;100615.00;1747593;81;21422;-68
2021/10/31 10:34:51;;;;;;;12.28;11.05;;;;;;;15.60;63.50;100604.89;1757935;81;20905;-68
2021/10/31 10:37:31;;;;;;;13.35;11.73;;;;;;;15.64;63.42;100597.33;1751392;81;20924;-68
2021/10/31 10:40:07;;;;;;;12.75;11.45;;;;;;;15.67;63.33;100591.55;1745350;81;20930;-68
2021/10/31 10:42:53;;;;;;;15.32;10.58;;;;;;;15.71;63.29;100591.83;1761296;79;21735;-68
2021/10/31 10:45:26;;;;;;;14.85;11.18;;;;;;;15.77;63.27;100592.91;1746706;81;20907;-68
2021/10/31 10:48:01;;;;;;;12.23;10.80;;;;;;;15.83;63.18;100599.20;1742114;82;20930;-68
2021/10/31 10:50:39;;;;;;;13.25;11.43;;;;;;;15.87;63.20;100603.39;1747397;80;20949;-68
2021/10/31 10:53:21;;;;;;;11.38;9.83;;;;;;;15.92;62.96;100599.30;1761117;81;20913;-69
2021/10/31 10:55:49;;;;;;;11.00;9.63;;;;;;;15.90;62.91;100602.42;1758480;80;20900;-68
2021/10/31 10:58:18;;;;;;;13.75;10.85;;;;;;;15.89;62.97;100593.75;1751771;81;20932;-68
2021/10/31 11:00:48;;;;;;;15.68;11.35;;;;;;;15.89;62.84;100593.75;1757160;81;20861;-68
2021/10/31 11:03:21;;;;;;;12.33;11.03;;;;;;;15.89;62.83;100591.14;1746330;81;20938;-69
2021/10/31 11:05:51;;;;;;;15.45;11.28;;;;;;;15.92;62.84;100593.23;1729605;81;20919;-69
2021/10/31 11:08:23;;;;;;;13.45;11.12;;;;;;;15.94;62.77;100588.36;1738586;80;20941;-68
2021/10/31 11:11:12;;;;;;;13.70;10.75;;;;;;;15.95;62.71;100580.93;1728482;81;21539;-69
2021/10/31 11:13:49;;;;;;;14.28;11.33;;;;;;;15.98;62.61;100581.27;1719166;83;20906;-69
2021/10/31 11:16:15;;;;;;;10.78;9.53;;;;;;;16.00;62.56;100572.92;1742662;81;20955;-68
2021/10/31 11:18:44;;;;;;;16.20;11.03;;;;;;;16.02;62.53;100574.56;1702513;83;20907;-68
2021/10/31 11:21:11;;;;;;;12.98;10.80;;;;;;;16.03;62.42;100575.42;1732187;82;21040;-68
2021/10/31 11:23:39;;;;;;;;;;;;;;;16.05;62.43;100574.91;1745613;82;21011;-68
2021/10/31 11:26:08;;;;;;;12.88;10.13;;;;;;;16.08;61.92;100574.78;1732928;81;20105;-68
2021/10/31 11:28:35;;;;;;;11.80;10.60;;;;;;;16.12;62.33;100575.87;1735089;81;21347;-68
2021/10/31 11:31:04;;;;;;;13.18;10.18;;;;;;;16.16;62.26;100574.00;1745280;81;20905;-68
2021/10/31 11:33:31;;;;;;;13.93;9.90;;;;;;;16.21;62.27;100570.75;1742019;81;21167;-68